createdAt,value
2023-03-06T00:00:22.174Z,64.70
2023-03-06T00:02:49.081Z,64.80
2023-03-06T00:05:15.972Z,65.20
2023-03-06T00:07:43.085Z,64.30
2023-03-06T00:10:14.073Z,63.10
2023-03-06T00:12:41.095Z,65.00
2023-03-06T00:15:08.360Z,64.50
2023-03-06T00:17:35.452Z,64.50
2023-03-06T00:20:02.296Z,64.70
2023-03-06T00:22:29.205Z,64.60
2023-03-06T00:24:56.105Z,63.40
2023-03-06T00:27:26.262Z,65.90
2023-03-06T00:29:56.517Z,66.50
2023-03-06T00:32:23.542Z,69.70
2023-03-06T00:34:51.267Z,66.20
2023-03-06T00:37:18.584Z,66.20
2023-03-06T00:39:46.178Z,67.40
2023-03-06T00:42:13.394Z,67.50
2023-03-06T00:44:40.294Z,69.80
2023-03-06T00:47:07.299Z,69.80
2023-03-06T00:49:34.263Z,69.80
2023-03-06T00:52:01.200Z,69.80
2023-03-06T00:54:28.073Z,69.10
2023-03-06T00:56:54.953Z,69.60
2023-03-06T00:59:21.901Z,69.20
2023-03-06T01:01:48.768Z,70.30
2023-03-06T01:04:15.721Z,70.70
2023-03-06T01:06:42.637Z,70.60
2023-03-06T01:09:09.500Z,69.40
2023-03-06T01:11:36.389Z,71.90
2023-03-06T01:14:04.079Z,71.40
2023-03-06T01:16:31.202Z,70.00
2023-03-06T01:18:58.137Z,71.20
2023-03-06T01:21:25.141Z,71.80
2023-03-06T01:23:52.061Z,71.20
2023-03-06T01:26:18.999Z,72.80
2023-03-06T01:28:45.841Z,71.10
2023-03-06T01:31:12.787Z,70.90
2023-03-06T01:33:39.672Z,72.70
2023-03-06T01:36:10.946Z,72.30
2023-03-06T01:38:37.886Z,73.50
2023-03-06T01:41:05.059Z,72.40
2023-03-06T01:43:34.296Z,72.00
2023-03-06T01:46:29.047Z,72.00
2023-03-06T01:49:15.856Z,74.60
2023-03-06T01:52:10.197Z,72.20
2023-03-06T01:55:10.120Z,73.80
2023-03-06T01:57:40.188Z,74.60
2023-03-06T02:00:11.290Z,73.10
2023-03-06T02:02:51.760Z,75.50
2023-03-06T02:05:18.638Z,73.20
2023-03-06T02:07:45.607Z,73.70
2023-03-06T02:10:14.387Z,73.60
2023-03-06T02:12:43.694Z,73.80
2023-03-06T02:15:15.024Z,72.40
2023-03-06T02:17:43.091Z,72.40
2023-03-06T02:20:26.582Z,72.60
2023-03-06T02:23:16.319Z,75.00
2023-03-06T02:25:50.314Z,75.40
2023-03-06T02:28:19.294Z,75.30
2023-03-06T02:30:47.278Z,75.20
2023-03-06T02:33:15.729Z,74.60
2023-03-06T02:36:05.177Z,73.60
2023-03-06T02:38:37.243Z,76.40
2023-03-06T02:41:05.493Z,75.70
2023-03-06T02:43:34.420Z,75.60
2023-03-06T02:46:02.436Z,75.90
2023-03-06T02:48:29.365Z,76.20
2023-03-06T02:50:56.273Z,76.70
2023-03-06T02:53:23.135Z,76.70
2023-03-06T02:55:50.126Z,76.90
2023-03-06T02:58:19.716Z,76.60
2023-03-06T03:00:47.931Z,77.50
2023-03-06T03:03:14.879Z,76.90
2023-03-06T03:05:41.751Z,76.50
2023-03-06T03:08:15.301Z,78.20
2023-03-06T03:10:42.631Z,77.40
2023-03-06T03:13:09.498Z,77.00
2023-03-06T03:15:38.121Z,76.40
2023-03-06T03:18:05.054Z,77.30
2023-03-06T03:20:32.039Z,77.80
2023-03-06T03:22:59.064Z,79.20
2023-03-06T03:25:26.864Z,78.10
2023-03-06T03:27:56.745Z,77.70
2023-03-06T03:30:23.706Z,77.70
2023-03-06T03:32:50.584Z,79.20
2023-03-06T03:35:17.795Z,79.50
2023-03-06T03:37:44.772Z,78.20
2023-03-06T03:40:12.768Z,77.90
2023-03-06T03:42:39.762Z,78.70
2023-03-06T03:45:07.800Z,79.80
2023-03-06T03:47:34.712Z,79.30
2023-03-06T03:50:02.640Z,79.10
2023-03-06T03:52:29.690Z,79.40
2023-03-06T03:54:56.889Z,80.80
2023-03-06T03:57:24.408Z,80.80
2023-03-06T03:59:53.135Z,80.10
2023-03-06T04:02:25.555Z,80.60
2023-03-06T04:05:08.389Z,80.30
2023-03-06T04:07:35.361Z,80.10
2023-03-06T04:10:02.328Z,81.20
2023-03-06T04:12:30.278Z,80.40
2023-03-06T04:14:57.267Z,80.80
2023-03-06T04:17:24.242Z,80.50
2023-03-06T04:19:52.181Z,81.30
2023-03-06T04:22:19.223Z,81.40
2023-03-06T04:24:48.931Z,81.40
2023-03-06T04:27:16.752Z,82.60
2023-03-06T04:29:43.857Z,81.30
2023-03-06T04:32:10.984Z,81.50
2023-03-06T04:34:38.994Z,81.20
2023-03-06T04:37:06.859Z,80.80
2023-03-06T04:39:34.206Z,82.60
2023-03-06T04:42:01.249Z,83.50
2023-03-06T04:44:28.261Z,82.50
2023-03-06T04:46:55.182Z,82.50
2023-03-06T04:49:22.266Z,82.30
2023-03-06T04:51:49.137Z,82.50
2023-03-06T04:54:17.952Z,82.50
2023-03-06T04:56:45.783Z,82.40
2023-03-06T04:59:12.620Z,83.20
2023-03-06T05:01:39.637Z,83.60
2023-03-06T05:04:06.514Z,82.90
2023-03-06T05:06:33.426Z,82.40
2023-03-06T05:09:00.281Z,82.40
2023-03-06T05:11:27.439Z,83.20
2023-03-06T05:13:54.256Z,83.50
2023-03-06T05:16:21.204Z,83.60
2023-03-06T05:18:50.609Z,84.80
2023-03-06T05:21:17.671Z,83.40
2023-03-06T05:23:44.576Z,83.10
2023-03-06T05:26:12.256Z,82.60
2023-03-06T05:28:39.238Z,82.90
2023-03-06T05:31:06.480Z,82.70
2023-03-06T05:33:34.141Z,83.20
2023-03-06T05:36:01.187Z,82.70
2023-03-06T05:38:28.110Z,83.50
2023-03-06T05:40:55.004Z,83.90
2023-03-06T05:43:21.886Z,83.30
2023-03-06T05:45:50.625Z,82.40
2023-03-06T05:48:17.511Z,82.40
2023-03-06T05:50:44.372Z,83.30
2023-03-06T05:53:11.251Z,83.60
2023-03-06T05:55:38.193Z,84.10
2023-03-06T05:58:05.072Z,84.20
2023-03-06T06:00:31.936Z,85.00
2023-03-06T06:03:01.236Z,86.60
2023-03-06T06:05:28.155Z,88.00
2023-03-06T06:07:55.134Z,88.40
2023-03-06T06:10:21.969Z,88.60
2023-03-06T06:12:48.924Z,87.10
2023-03-06T06:15:15.916Z,86.50
2023-03-06T06:17:42.777Z,86.10
2023-03-06T06:20:10.169Z,88.20
2023-03-06T06:22:38.112Z,88.10
2023-03-06T06:25:06.038Z,88.90
2023-03-06T06:27:33.016Z,88.70
2023-03-06T06:29:59.879Z,87.90
2023-03-06T06:32:26.754Z,87.30
2023-03-06T06:34:53.775Z,87.10
2023-03-06T06:37:20.660Z,87.10
2023-03-06T06:39:47.578Z,88.00
2023-03-06T06:42:30.954Z,87.90
2023-03-06T06:45:00.099Z,87.90
2023-03-06T06:47:27.128Z,87.60
2023-03-06T06:49:54.702Z,87.50
2023-03-06T06:52:22.083Z,87.40
2023-03-06T06:54:48.959Z,87.20
2023-03-06T06:57:15.992Z,87.90
2023-03-06T06:59:42.933Z,86.70
2023-03-06T07:02:13.912Z,87.30
2023-03-06T07:04:49.260Z,87.60
2023-03-06T07:07:19.649Z,87.90
2023-03-06T07:09:46.534Z,87.40
2023-03-06T07:12:13.414Z,86.70
2023-03-06T07:14:41.508Z,86.30
2023-03-06T07:17:09.381Z,86.90
2023-03-06T07:19:37.365Z,87.90
2023-03-06T07:22:05.090Z,88.60
2023-03-06T07:24:32.049Z,88.80
2023-03-06T07:26:58.955Z,88.50
2023-03-06T07:29:25.841Z,89.70
2023-03-06T07:31:52.721Z,90.10
2023-03-06T07:34:19.590Z,90.70
2023-03-06T07:36:46.423Z,91.20
2023-03-06T07:39:13.413Z,91.60
2023-03-06T07:41:40.430Z,92.00
2023-03-06T07:44:07.408Z,92.60
2023-03-06T07:46:34.385Z,92.40
2023-03-06T07:49:01.307Z,93.20
2023-03-06T07:51:28.297Z,93.40
2023-03-06T07:53:55.218Z,93.50
2023-03-06T07:56:22.184Z,93.30
2023-03-06T07:58:49.316Z,93.00
2023-03-06T08:01:20.486Z,92.50
2023-03-06T08:03:47.855Z,92.50
2023-03-06T08:06:22.203Z,92.90
2023-03-06T08:08:50.148Z,92.90
2023-03-06T08:11:17.992Z,92.60
2023-03-06T08:13:44.961Z,93.10
2023-03-06T08:16:12.124Z,93.60
2023-03-06T08:18:43.682Z,93.90
2023-03-06T08:21:13.777Z,93.80
2023-03-06T08:23:40.945Z,93.70
2023-03-06T08:26:13.010Z,93.70
2023-03-06T08:28:40.092Z,94.10
2023-03-06T08:31:14.858Z,94.80
2023-03-06T08:33:41.776Z,95.10
2023-03-06T08:36:08.824Z,95.00
2023-03-06T08:38:35.727Z,94.70
2023-03-06T08:41:02.740Z,94.80
2023-03-06T08:43:29.678Z,94.20
2023-03-06T08:45:57.106Z,94.50
2023-03-06T08:48:24.325Z,94.50
2023-03-06T08:50:51.333Z,94.50
2023-03-06T08:53:18.310Z,94.60
2023-03-06T08:55:45.240Z,94.50
2023-03-06T08:58:12.202Z,94.30
2023-03-06T09:00:39.466Z,94.30
2023-03-06T09:03:06.444Z,94.00
2023-03-06T09:05:33.507Z,93.70
2023-03-06T09:08:00.474Z,93.60
2023-03-06T09:10:27.487Z,93.20
2023-03-06T09:12:55.080Z,92.90
2023-03-06T09:15:22.662Z,92.50
2023-03-06T09:17:50.919Z,92.60
2023-03-06T09:20:18.363Z,92.00
2023-03-06T09:22:45.800Z,91.90
2023-03-06T09:25:20.532Z,91.20
2023-03-06T09:27:55.426Z,90.80
2023-03-06T09:30:28.950Z,91.20
2023-03-06T09:32:56.261Z,91.00
2023-03-06T09:35:23.202Z,90.90
2023-03-06T09:37:50.228Z,90.70
2023-03-06T09:40:20.091Z,90.90
2023-03-06T09:42:47.134Z,90.40
2023-03-06T09:45:14.456Z,90.30
2023-03-06T09:47:53.153Z,88.60
2023-03-06T09:50:48.281Z,89.20
2023-03-06T09:53:38.298Z,88.80
2023-03-06T09:56:22.588Z,85.90
2023-03-06T09:58:51.632Z,85.30
2023-03-06T10:01:31.929Z,85.10
2023-03-06T10:04:28.459Z,84.20
2023-03-06T10:07:14.794Z,84.10
2023-03-06T10:09:57.335Z,82.40
2023-03-06T10:12:35.404Z,82.20
2023-03-06T10:15:25.985Z,82.10
2023-03-06T10:17:53.228Z,81.90
2023-03-06T10:20:29.144Z,80.60
2023-03-06T10:23:11.132Z,80.60
2023-03-06T10:25:57.244Z,79.70
2023-03-06T10:28:29.828Z,77.50
2023-03-06T10:31:09.078Z,79.70
2023-03-06T10:33:48.526Z,78.90
2023-03-06T10:36:17.081Z,78.00
2023-03-06T10:38:44.643Z,78.60
2023-03-06T10:41:11.683Z,76.80
2023-03-06T10:44:04.734Z,77.70
2023-03-06T10:46:43.086Z,76.60
2023-03-06T10:49:35.810Z,76.90
2023-03-06T10:52:02.704Z,73.60
2023-03-06T10:54:31.704Z,77.00
2023-03-06T10:56:58.712Z,77.30
2023-03-06T10:59:28.416Z,74.70
2023-03-06T11:01:59.243Z,73.80
2023-03-06T11:04:30.185Z,76.80
2023-03-06T11:07:14.736Z,74.20
2023-03-06T11:09:57.296Z,72.50
2023-03-06T11:12:34.692Z,74.70
2023-03-06T11:15:23.347Z,72.70
2023-03-06T11:18:05.009Z,73.00
2023-03-06T11:20:52.385Z,72.60
2023-03-06T11:23:19.607Z,72.70
2023-03-06T11:25:56.750Z,73.20
2023-03-06T11:28:31.878Z,72.70
2023-03-06T11:31:15.451Z,72.60
2023-03-06T11:34:06.815Z,72.20
2023-03-06T11:36:56.541Z,72.50
2023-03-06T11:39:48.004Z,72.10
2023-03-06T11:42:26.275Z,72.10
2023-03-06T11:45:26.825Z,73.70
2023-03-06T11:48:31.852Z,70.40
2023-03-06T11:51:12.441Z,65.50
2023-03-06T11:53:39.808Z,69.30
2023-03-06T11:56:19.062Z,69.20
2023-03-06T11:59:18.812Z,68.00
2023-03-06T12:01:58.218Z,67.90
2023-03-06T12:04:31.304Z,68.70
2023-03-06T12:07:07.214Z,69.60
2023-03-06T12:09:56.422Z,68.80
2023-03-06T12:12:26.269Z,66.70
2023-03-06T12:15:08.672Z,68.60
2023-03-06T12:17:44.388Z,65.70
2023-03-06T12:20:39.755Z,63.90
2023-03-06T12:23:37.265Z,64.30
2023-03-06T12:26:31.569Z,61.10
2023-03-06T12:29:13.434Z,60.50
2023-03-06T12:32:04.888Z,63.10
2023-03-06T12:34:38.346Z,61.10
2023-03-06T12:37:28.440Z,59.30
2023-03-06T12:40:25.621Z,56.10
2023-03-06T12:43:07.588Z,55.00
2023-03-06T12:45:35.256Z,54.90
2023-03-06T12:48:02.604Z,56.70
2023-03-06T12:50:31.175Z,57.00
2023-03-06T12:53:03.323Z,57.70
2023-03-06T12:55:38.061Z,52.20
2023-03-06T12:58:30.111Z,54.30
2023-03-06T13:01:04.714Z,50.50
2023-03-06T13:03:54.796Z,49.30
2023-03-06T13:06:54.242Z,53.00
2023-03-06T13:09:58.910Z,51.90
2023-03-06T13:12:47.611Z,49.40
2023-03-06T13:15:41.938Z,53.40
2023-03-06T13:18:23.952Z,60.00
2023-03-06T13:20:55.123Z,65.80
2023-03-06T13:23:37.345Z,65.90
2023-03-06T13:26:05.433Z,68.70
2023-03-06T13:28:45.026Z,67.10
2023-03-06T13:31:31.706Z,61.20
2023-03-06T13:34:36.820Z,66.90
2023-03-06T13:37:19.599Z,63.50
2023-03-06T13:40:10.165Z,64.10
2023-03-06T13:42:59.746Z,64.00
2023-03-06T13:45:30.850Z,61.10
2023-03-06T13:50:48.699Z,63.10
2023-03-06T13:53:27.843Z,63.00
2023-03-06T13:56:21.579Z,57.30
2023-03-06T13:59:02.101Z,57.10
2023-03-06T14:01:50.869Z,57.40
2023-03-06T14:04:57.556Z,57.70
2023-03-06T14:07:32.361Z,56.70
2023-03-06T14:10:08.437Z,48.70
2023-03-06T14:12:38.163Z,54.50
2023-03-06T14:15:23.428Z,56.10
2023-03-06T14:17:54.898Z,51.40
2023-03-06T14:20:22.057Z,54.00
2023-03-06T14:22:48.902Z,53.80
2023-03-06T14:25:29.170Z,56.30
2023-03-06T14:28:02.908Z,55.20
2023-03-06T14:30:32.696Z,55.70
2023-03-06T14:32:59.560Z,57.30
2023-03-06T14:35:27.853Z,58.60
2023-03-06T14:38:06.195Z,55.60
2023-03-06T14:40:40.950Z,58.60
2023-03-06T14:43:34.345Z,58.70
2023-03-06T14:46:02.675Z,55.80
2023-03-06T14:48:41.942Z,56.60
2023-03-06T14:51:27.396Z,54.30
2023-03-06T14:53:54.386Z,54.00
2023-03-06T14:56:22.631Z,57.10
2023-03-06T14:59:00.014Z,59.40
2023-03-06T15:01:34.192Z,59.50
2023-03-06T15:04:01.689Z,60.00
2023-03-06T15:06:28.648Z,61.60
2023-03-06T15:09:27.842Z,64.80
2023-03-06T15:12:05.321Z,66.10
2023-03-06T15:14:42.505Z,75.90
2023-03-06T15:17:18.599Z,77.80
2023-03-06T15:19:47.089Z,79.10
2023-03-06T15:22:28.351Z,79.10
2023-03-06T15:25:15.195Z,80.90
2023-03-06T15:27:44.349Z,81.00
2023-03-06T15:30:36.230Z,79.60
2023-03-06T15:33:22.984Z,81.70
2023-03-06T15:35:55.105Z,81.80
2023-03-06T15:38:44.328Z,81.70
2023-03-06T15:41:34.119Z,83.40
2023-03-06T15:44:02.336Z,83.30
2023-03-06T15:46:29.575Z,82.70
2023-03-06T15:49:03.240Z,83.80
2023-03-06T15:51:31.030Z,85.80
2023-03-06T15:54:09.949Z,85.10
2023-03-06T15:56:43.306Z,85.80
2023-03-06T15:59:24.461Z,86.20
2023-03-06T16:01:51.764Z,85.80
2023-03-06T16:04:19.839Z,84.70
2023-03-06T16:06:47.035Z,85.20
2023-03-06T16:09:14.625Z,84.60
2023-03-06T16:11:44.905Z,84.40
2023-03-06T16:14:18.835Z,84.00
2023-03-06T16:16:46.038Z,83.80
2023-03-06T16:19:26.094Z,83.30
2023-03-06T16:21:53.778Z,84.60
2023-03-06T16:24:20.672Z,83.20
2023-03-06T16:26:50.138Z,84.30
2023-03-06T16:29:25.113Z,85.40
2023-03-06T16:31:52.359Z,84.50
2023-03-06T16:34:19.913Z,84.50
2023-03-06T16:36:47.547Z,85.70
2023-03-06T16:39:19.110Z,86.60
2023-03-06T16:41:46.253Z,85.10
2023-03-06T16:44:13.483Z,84.60
2023-03-06T16:46:46.007Z,83.30
2023-03-06T16:49:23.793Z,81.70
2023-03-06T16:51:50.911Z,79.70
2023-03-06T16:54:17.797Z,81.80
2023-03-06T16:56:44.771Z,79.70
2023-03-06T16:59:11.984Z,80.40
2023-03-06T17:01:40.156Z,80.10
2023-03-06T17:04:07.096Z,79.80
2023-03-06T17:06:34.063Z,79.70
2023-03-06T17:09:01.023Z,79.20
2023-03-06T17:11:28.160Z,79.70
2023-03-06T17:13:55.474Z,79.70
2023-03-06T17:16:22.467Z,80.00
2023-03-06T17:18:49.847Z,80.10
2023-03-06T17:21:16.745Z,82.10
2023-03-06T17:23:44.543Z,83.10
2023-03-06T17:26:15.755Z,83.80
2023-03-06T17:28:42.896Z,84.80
2023-03-06T17:31:16.654Z,85.80
2023-03-06T17:33:43.817Z,86.60
2023-03-06T17:36:10.704Z,84.80
2023-03-06T17:38:37.814Z,86.50
2023-03-06T17:41:05.796Z,86.50
2023-03-06T17:43:32.951Z,85.70
2023-03-06T17:46:18.560Z,87.70
2023-03-06T17:48:45.537Z,87.70
2023-03-06T17:51:12.432Z,87.20
2023-03-06T17:53:39.506Z,86.70
2023-03-06T17:56:08.104Z,84.80
2023-03-06T17:58:35.095Z,86.50
2023-03-06T18:01:12.929Z,87.20
2023-03-06T18:03:40.062Z,87.80
2023-03-06T18:06:09.510Z,87.60
2023-03-06T18:08:37.324Z,87.40
2023-03-06T18:11:05.447Z,87.70
2023-03-06T18:13:36.381Z,87.90
2023-03-06T18:16:03.909Z,86.40
2023-03-06T18:18:30.842Z,88.20
2023-03-06T18:20:57.863Z,87.70
2023-03-06T18:23:25.161Z,86.60
2023-03-06T18:25:52.771Z,86.40
2023-03-06T18:28:19.709Z,89.00
2023-03-06T18:30:46.623Z,86.40
2023-03-06T18:33:13.507Z,86.40
2023-03-06T18:35:44.087Z,88.90
2023-03-06T18:38:11.050Z,89.90
2023-03-06T18:40:37.971Z,90.10
2023-03-06T18:43:04.960Z,90.50
2023-03-06T18:45:33.549Z,90.20
2023-03-06T18:48:00.514Z,91.10
2023-03-06T18:50:27.480Z,91.30
2023-03-06T18:52:54.374Z,91.70
2023-03-06T18:55:21.610Z,92.30
2023-03-06T18:57:48.478Z,92.80
2023-03-06T19:00:15.835Z,93.30
2023-03-06T19:02:42.740Z,92.70
2023-03-06T19:05:10.365Z,92.70
2023-03-06T19:07:37.383Z,93.20
2023-03-06T19:10:04.638Z,94.10
2023-03-06T19:12:33.013Z,94.30
2023-03-06T19:14:59.926Z,94.10
2023-03-06T19:17:26.805Z,94.10
2023-03-06T19:19:55.147Z,94.80
2023-03-06T19:22:23.147Z,94.60
2023-03-06T19:24:50.263Z,94.30
2023-03-06T19:27:17.260Z,94.70
2023-03-06T19:29:44.205Z,94.70
2023-03-06T19:32:11.162Z,94.60
2023-03-06T19:34:38.175Z,94.00
2023-03-06T19:37:05.035Z,93.90
2023-03-06T19:39:32.035Z,93.90
2023-03-06T19:41:58.973Z,95.10
2023-03-06T19:44:25.933Z,93.90
2023-03-06T19:46:52.837Z,93.10
2023-03-06T19:49:22.246Z,93.30
2023-03-06T19:51:49.118Z,94.00
2023-03-06T19:54:16.205Z,94.60
2023-03-06T19:56:43.211Z,94.50
2023-03-06T19:59:10.280Z,94.70
2023-03-06T20:01:38.743Z,95.20
2023-03-06T20:04:05.938Z,95.00
2023-03-06T20:06:39.128Z,94.90
2023-03-06T20:09:07.867Z,95.20
2023-03-06T20:11:34.855Z,95.20
2023-03-06T20:14:02.736Z,95.30
2023-03-06T20:16:30.067Z,95.20
2023-03-06T20:18:58.975Z,94.70
2023-03-06T20:21:28.490Z,95.20
2023-03-06T20:23:57.043Z,95.50
2023-03-06T20:26:24.894Z,95.50
2023-03-06T20:28:51.768Z,95.90
2023-03-06T20:31:19.992Z,95.20
2023-03-06T20:33:48.126Z,95.60
2023-03-06T20:36:19.929Z,95.50
2023-03-06T20:38:47.282Z,96.20
2023-03-06T20:41:15.716Z,96.20
2023-03-06T20:43:42.636Z,96.10
2023-03-06T20:46:09.481Z,96.80
2023-03-06T20:48:36.361Z,96.50
2023-03-06T20:51:04.178Z,96.90
2023-03-06T20:53:31.133Z,96.90
2023-03-06T20:55:58.026Z,96.40
2023-03-06T20:58:28.629Z,96.90
2023-03-06T21:00:56.142Z,96.70
2023-03-06T21:03:22.978Z,96.60
2023-03-06T21:05:49.947Z,96.80
2023-03-06T21:08:16.897Z,96.80
2023-03-06T21:10:46.871Z,96.50
2023-03-06T21:13:14.256Z,96.40
2023-03-06T21:15:41.905Z,96.30
2023-03-06T21:18:09.115Z,96.40
2023-03-06T21:20:38.479Z,96.50
2023-03-06T21:23:05.812Z,96.60
2023-03-06T21:25:32.844Z,96.50
2023-03-06T21:28:00.316Z,96.10
2023-03-06T21:30:27.983Z,96.40
2023-03-06T21:32:54.848Z,96.60
2023-03-06T21:35:21.841Z,96.40
2023-03-06T21:37:48.760Z,96.30
2023-03-06T21:40:15.736Z,96.20
2023-03-06T21:42:42.625Z,96.70
2023-03-06T21:45:09.930Z,96.50
2023-03-06T21:47:38.877Z,96.70
2023-03-06T21:50:07.450Z,96.20
2023-03-06T21:52:34.444Z,96.50
2023-03-06T21:55:01.343Z,96.40
2023-03-06T21:57:28.207Z,96.10
2023-03-06T21:59:55.063Z,96.30
2023-03-06T22:02:21.960Z,96.30
2023-03-06T22:04:52.673Z,96.30
2023-03-06T22:07:20.289Z,96.40
2023-03-06T22:09:47.371Z,96.40
2023-03-06T22:12:14.542Z,95.90
2023-03-06T22:14:43.637Z,96.30
2023-03-06T22:17:10.556Z,96.30
2023-03-06T22:19:37.384Z,96.30
2023-03-06T22:22:04.491Z,96.30
2023-03-06T22:24:32.231Z,96.20
2023-03-06T22:26:59.069Z,96.20
2023-03-06T22:29:25.993Z,96.20
2023-03-06T22:31:53.102Z,96.10
2023-03-06T22:34:20.087Z,95.80
2023-03-06T22:36:47.001Z,96.30
2023-03-06T22:39:13.906Z,96.40
2023-03-06T22:41:40.925Z,95.90
2023-03-06T22:44:07.760Z,95.90
2023-03-06T22:46:34.681Z,95.90
2023-03-06T22:49:01.876Z,96.30
2023-03-06T22:51:29.475Z,96.30
2023-03-06T22:53:56.511Z,96.30
2023-03-06T22:56:23.338Z,96.30
2023-03-06T22:58:50.209Z,96.20
2023-03-06T23:01:21.556Z,96.60
2023-03-06T23:03:58.852Z,96.30
2023-03-06T23:06:30.928Z,96.30
2023-03-06T23:08:59.990Z,96.50
2023-03-06T23:11:28.045Z,96.40
2023-03-06T23:14:13.283Z,96.30
2023-03-06T23:16:58.630Z,96.10
2023-03-06T23:19:44.465Z,95.90
2023-03-06T23:22:29.687Z,96.40
2023-03-06T23:25:15.212Z,96.40
2023-03-06T23:27:42.272Z,96.50
2023-03-06T23:30:09.651Z,96.50
2023-03-06T23:32:36.492Z,96.10
2023-03-06T23:35:03.408Z,96.00
2023-03-06T23:37:30.290Z,96.40
2023-03-06T23:39:57.316Z,96.10
2023-03-06T23:42:24.266Z,96.30
2023-03-06T23:44:51.108Z,96.30
2023-03-06T23:47:20.086Z,96.10
2023-03-06T23:49:47.042Z,96.10
2023-03-06T23:52:13.914Z,96.10
2023-03-06T23:54:40.828Z,96.10
2023-03-06T23:57:07.811Z,96.20
2023-03-06T23:59:34.724Z,96.10
